• Join FlightAware (Why Join?)
  • Login
  • US Flag 
05:01AM EDT


 

Airport Tracker/Info


-or-


 

Live Flight TrackerFlight Track Log ✈ UAL1258 ✈ 19-Jul-2013 ✈ KEWR - KDEN

Flight Track Log - Related Links

Times and Time Zones

All times are in EDT time to prevent confusion due to time zone crossing. See the UAL1258 flight status page for this flight to view local times or setup timezone preferences in your user account.

Time Position Orientation Groundspeed Altitude Reporting Facility
EDT Latitude Longitude Course Direction KTS MPH feet Rate Location/Type
05:29AM 40.6431 -74.2692 249° West 199 229 3,900  Level New York Center
05:30AM 40.7826 -74.6077 287° West  Level FlightAware Approximate
05:30AM 40.6572 -74.3519 283° West 230 265 6,400  Level New York Center
05:31AM 40.8171 -74.7573 287° West  Level FlightAware Approximate
05:32AM 40.8500 -74.9073 270° West  Level FlightAware Approximate
05:32AM 40.6581 -74.4614 271° West 265 305 9,600  Level New York Center
05:32AM 40.6608 -74.5708 272° West 294 338 11,100 1,740 Climbing New York Center
05:33AM 40.8833 -75.0483 270° West  Level FlightAware Approximate
05:33AM 40.6628 -74.6997 271° West 334 384 13,100  Level New York Center
05:34AM 40.9000 -75.1784 270° West  Level FlightAware Approximate
05:34AM 40.6625 -74.8336 270° West 369 425 15,600  Level New York Center
05:35AM 40.8708 -75.3022 249° West  Level FlightAware Approximate
05:35AM 40.6722 -74.9711 275° West 374 430 17,500  Level New York Center
05:36AM 40.6858 -75.1142 277° West 385 443 19,400 1,860 Climbing New York Center
05:37AM 40.6992 -75.2628 277° West 397 457 21,300 1,680 Climbing New York Center
05:39AM 40.7142 -75.4144 277° West 411 473 22,800 1,440 Climbing New York Center
05:39AM 40.7286 -75.5714 277° West 425 489 24,200 1,440 Climbing New York Center
05:40AM 40.7383 -75.7364 275° West 442 509 25,700 1,320 Climbing New York Center
05:41AM 40.7522 -75.9019 276° West 453 521 26,900 1,020 Climbing New York Center
05:42AM 40.7644 -76.0508 276° West 458 527 27,800 960 Climbing New York Center
05:44AM 40.7794 -76.2247 277° West 470 541 28,900 1,140 Climbing New York Center
05:45AM 40.7922 -76.3983 276° West 475 547 30,200 1,260 Climbing New York Center
05:45AM 40.8069 -76.5669 277° West 475 547 31,500 1,200 Climbing New York Center
05:46AM 40.8192 -76.7406 275° West 480 552 32,600 1,140 Climbing New York Center
05:48AM 40.8333 -76.9119 276° West 480 552 33,800 1,200 Climbing New York Center
05:48AM 40.8475 -77.0781 276° West 480 552 35,100 1,020 Climbing New York Center
05:49AM 40.8614 -77.2467 276° West 474 545 35,900 420 Climbing New York Center
05:50AM 40.8750 -77.4128 276° West 465 535 36,000  Climbing New York Center
05:52AM 40.8903 -77.6442 275° West 482 555 36,000  Level Cleveland Center
05:53AM 40.9008 -77.8083 275° West 475 547 36,000  Level Cleveland Center
05:54AM 40.9131 -77.9756 276° West 465 535 36,000  Level Cleveland Center
05:55AM 40.9333 -78.1397 279° West 459 528 36,000  Level Cleveland Center
05:56AM 40.9600 -78.3231 281° West 465 535 36,000  Level Cleveland Center
05:57AM 40.9797 -78.4872 279° West 465 535 36,000  Level Cleveland Center
05:58AM 40.9994 -78.6544 279° West 465 535 36,000  Level Cleveland Center
05:59AM 41.0189 -78.8219 279° West 465 535 36,000  Level Cleveland Center
06:00AM 41.0378 -78.9864 279° West 465 535 36,000  Level Cleveland Center
06:01AM 41.0569 -79.1567 279° West 465 535 36,000  Level Cleveland Center
06:02AM 41.0733 -79.3217 278° West 465 535 36,000  Level Cleveland Center
06:03AM 41.0958 -79.4864 280° West 465 535 36,000  Level Cleveland Center
06:04AM 41.1119 -79.6489 278° West 465 535 36,000  Level Cleveland Center
06:05AM 41.1275 -79.7783 279° West 465 535 36,000  Level Cleveland Center
06:06AM 41.1433 -79.9683 276° West 470 541 36,000  Level Cleveland Center
06:07AM 41.1669 -80.1472 280° West 464 534 36,000  Level Cleveland Center
06:08AM 41.1842 -80.3156 278° West 464 534 36,000  Level Cleveland Center
06:09AM 41.1950 -80.4672 275° West 469 540 36,000  Level Cleveland Center
06:10AM 41.2136 -80.6328 279° West 459 528 36,000  Level Cleveland Center
06:11AM 41.2303 -80.7983 278° West 459 528 36,000  Level Cleveland Center
06:12AM 41.2403 -80.9697 274° West 465 535 36,000  Level Cleveland Center
06:13AM 41.2458 -81.1356 273° West 457 526 36,000  Level Cleveland Center
06:14AM 41.2553 -81.3039 274° West 457 526 36,000  Level Cleveland Center
06:15AM 41.2664 -81.4892 275° West 462 532 36,000  Level Cleveland Center
06:16AM 41.2733 -81.6550 273° West 462 532 36,000  Level Cleveland Center
06:17AM 41.2778 -81.8236 272° West 462 532 36,000  Level Cleveland Center
06:18AM 41.2842 -81.9897 273° West 462 532 36,000  Level Cleveland Center
06:19AM 41.2906 -82.1444 273° West 462 532 36,000  Level Cleveland Center
06:20AM 41.2967 -82.3078 273° West 455 524 36,000  Level Cleveland Center
06:21AM 41.3022 -82.4708 273° West 445 512 36,000  Level Cleveland Center
06:22AM 41.3078 -82.6342 273° West 445 512 36,000  Level Cleveland Center
06:23AM 41.3131 -82.8003 272° West 440 506 36,000  Level Cleveland Center
06:24AM 41.3200 -82.9775 273° West 440 506 36,000  Level Cleveland Center
06:25AM 41.3228 -83.1353 271° West 440 506 36,000  Level Cleveland Center
06:26AM 41.3258 -83.2764 272° West 440 506 36,000  Level Cleveland Center
06:27AM 41.3303 -83.4369 272° West 440 506 36,000  Level Cleveland Center
06:28AM 41.3322 -83.5975 271° West 440 506 36,000  Level Cleveland Center
06:29AM 41.3364 -83.7581 272° West 440 506 36,000 180 Level Cleveland Center
06:30AM 41.3461 -83.9300 274° West 440 506 36,400 540 Climbing Cleveland Center
06:31AM 41.3458 -84.0794 270° West 445 512 37,100 660 Climbing Cleveland Center
06:32AM 41.3528 -84.3233 272° West 439 505 38,000 360 Climbing Chicago Center
06:33AM 41.3564 -84.4847 272° West 437 503 38,000  Level Chicago Center
06:34AM 41.3586 -84.6458 271° West 437 503 38,000  Level Chicago Center
06:35AM 41.3617 -84.8078 271° West 436 502 38,000  Level Chicago Center
06:36AM 41.3631 -84.9689 271° West 436 502 38,000  Level Chicago Center
06:37AM 41.3644 -85.1319 271° West 437 503 38,000  Level Chicago Center
06:38AM 41.3669 -85.2953 271° West 438 504 38,000  Level Chicago Center
06:39AM 41.3686 -85.4617 271° West 442 509 38,000  Level Chicago Center
06:40AM 41.3697 -85.6283 271° West 443 510 38,000  Level Chicago Center
06:41AM 41.3703 -85.7928 270° West 441 507 38,000  Level Chicago Center
06:42AM 41.3717 -85.9575 271° West 444 511 38,000  Level Chicago Center
06:43AM 41.3728 -86.1208 271° West 444 511 38,000  Level Chicago Center
06:44AM 41.3728 -86.2853 270° West 445 512 38,000  Level Chicago Center
06:45AM 41.3739 -86.4497 271° West 448 516 38,000  Level Chicago Center
06:46AM 41.3736 -86.6142 270° West 448 516 38,000  Level Chicago Center
06:47AM 41.3725 -86.7844 270° West 449 517 38,000  Level Chicago Center
06:48AM 41.3731 -86.9503 270° West 452 520 38,000  Level Chicago Center
06:49AM 41.3719 -87.1136 270° West 450 518 38,000  Level Chicago Center
06:50AM 41.3711 -87.2781 270° West 448 516 38,000  Level Chicago Center
06:51AM 41.3706 -87.4411 270° West 447 514 38,000  Level Chicago Center
06:52AM 41.3697 -87.6033 270° West 442 509 38,000  Level Chicago Center
06:54AM 41.3681 -87.7667 269° West 443 510 38,000  Level Chicago Center
06:55AM 41.3650 -87.9308 269° West 442 509 38,000  Level Chicago Center
06:56AM 41.3661 -88.1108 271° West 455 524 38,000  Level Chicago Center
06:57AM 41.3614 -88.2786 268° West 450 518 38,000  Level Chicago Center
06:58AM 41.3586 -88.4444 269° West 450 518 38,000  Level Chicago Center
06:59AM 41.3556 -88.6094 269° West 449 517 38,000  Level Chicago Center
07:00AM 41.3525 -88.7753 269° West 451 519 38,000  Level Chicago Center
07:01AM 41.3481 -88.9758 268° West 454 522 38,000  Level Chicago Center
07:02AM 41.3450 -89.1425 269° West 454 522 38,000  Level Chicago Center
07:03AM 41.3431 -89.3103 269° West 456 525 38,000  Level Chicago Center
07:04AM 41.3392 -89.4769 268° West 455 524 38,000  Level Chicago Center
07:05AM 41.3350 -89.6439 268° West 454 522 38,000  Level Chicago Center
07:06AM 41.3303 -89.8106 268° West 455 524 38,000  Level Chicago Center
07:07AM 41.3258 -89.9769 268° West 454 522 38,000  Level Chicago Center
07:08AM 41.3206 -90.1444 268° West 455 524 38,000  Level Chicago Center
07:09AM 41.3150 -90.3117 268° West 457 526 38,000  Level Chicago Center
07:10AM 41.3092 -90.4811 267° West 459 528 38,000  Level Chicago Center
07:11AM 41.3028 -90.6481 267° West 458 527 38,000  Level Chicago Center
07:12AM 41.2953 -90.8486 267° West 455 524 38,000  Level Chicago Center
07:13AM 41.2900 -91.0158 268° West 455 524 38,000  Level Chicago Center
07:14AM 41.2828 -91.1836 267° West 454 522 38,000  Level Chicago Center
07:15AM 41.2758 -91.3497 267° West 454 522 38,000  Level Chicago Center
07:16AM 41.2678 -91.5150 266° West 452 520 38,000  Level Chicago Center
07:17AM 41.2608 -91.6819 267° West 454 522 38,000  Level Chicago Center
07:18AM 41.2533 -91.8478 267° West 453 521 38,000  Level Chicago Center
07:19AM 41.2467 -92.0131 267° West 452 520 38,000  Level Chicago Center
07:20AM 41.2383 -92.1769 266° West 450 518 38,000  Level Chicago Center
07:21AM 41.2286 -92.3744 266° West 450 518 38,000  Level Chicago Center
07:22AM 41.2206 -92.5211 266° West 450 518 38,000  Level Chicago Center
07:23AM 41.2119 -92.6864 266° West 453 521 38,000  Level Chicago Center
07:24AM 41.2014 -92.8844 266° West 454 522 38,000  Level Chicago Center
07:25AM 41.1942 -93.0183 266° West 455 524 38,000  Level Minneapolis Center
07:26AM 41.1844 -93.1814 266° West 452 520 38,000  Level Minneapolis Center
07:27AM 41.1756 -93.3467 266° West 454 522 38,000  Level Minneapolis Center
07:28AM 41.1650 -93.5106 265° West 453 521 38,000  Level Minneapolis Center
07:29AM 41.1542 -93.6764 265° West 454 522 38,000  Level Minneapolis Center
07:30AM 41.1458 -93.8344 266° West 447 514 38,000  Level Minneapolis Center
07:31AM 41.1367 -93.9981 266° West 448 516 38,000  Level Minneapolis Center
07:32AM 41.1261 -94.1606 265° West 449 517 38,000  Level Minneapolis Center
07:33AM 41.1122 -94.3572 265° West 451 519 38,000  Level Minneapolis Center
07:34AM 41.1017 -94.5189 265° West 448 516 38,000  Level Minneapolis Center
07:35AM 41.0872 -94.6922 264° West 445 512 38,000  Level Minneapolis Center
07:36AM 41.0764 -94.8550 265° West 444 511 38,000  Level Minneapolis Center
07:37AM 41.0661 -94.9842 264° West 442 509 38,000  Level Minneapolis Center
07:38AM 41.0544 -95.1461 265° West 441 507 38,000  Level Minneapolis Center
07:39AM 41.0394 -95.3411 264° West 442 509 38,000  Level Minneapolis Center
07:40AM 41.0258 -95.5039 264° West 442 509 38,000  Level Minneapolis Center
07:41AM 41.0117 -95.6661 263° West 440 506 38,000  Level Minneapolis Center
07:42AM 40.9875 -95.8281 259° West 443 510 38,000  Level Minneapolis Center
07:43AM 40.9656 -95.9933 260° West 449 517 38,000  Level Minneapolis Center
07:44AM 40.9428 -96.1564 260° West 449 517 38,000  Level Minneapolis Center
07:45AM 40.9200 -96.3192 260° West 447 514 38,000  Level Minneapolis Center
07:46AM 40.8978 -96.4817 260° West 448 516 38,000  Level Minneapolis Center
07:47AM 40.8753 -96.6428 260° West 446 513 38,000  Level Minneapolis Center
07:48AM 40.8514 -96.8047 259° West 448 516 38,000  Level Minneapolis Center
07:49AM 40.8342 -96.9650 262° West 443 510 38,000  Level Minneapolis Center
07:50AM 40.8378 -97.1247 272° West 436 502 38,000  Level Minneapolis Center
07:51AM 40.8375 -97.2844 270° West 435 501 38,000  Level Minneapolis Center
07:52AM 40.8369 -97.4597 270° West 437 503 38,000  Level Minneapolis Center
07:53AM 40.8367 -97.6211 270° West 439 505 38,000  Level Minneapolis Center
07:54AM 40.8361 -97.7839 270° West 441 507 38,000  Level Minneapolis Center
07:55AM 40.8347 -97.9453 269° West 441 507 38,000  Level Minneapolis Center
07:56AM 40.8333 -98.1092 269° West 444 511 38,000  Level Minneapolis Center
07:57AM 40.8319 -98.2733 269° West 445 512 38,000  Level Minneapolis Center
07:58AM 40.8297 -98.4514 269° West 443 510 38,000  Level Minneapolis Center
07:59AM 40.8275 -98.6139 269° West 443 510 38,000  Level Minneapolis Center
08:00AM 40.8253 -98.7764 269° West 443 510 38,000  Level Minneapolis Center
08:01AM 40.8228 -98.9378 269° West 441 507 38,000  Level Minneapolis Center
08:02AM 40.8211 -99.1225 269° West 438 504 38,000  Level Minneapolis Center
08:03AM 40.8183 -99.2497 268° West 436 502 38,000  Level Denver Center
08:04AM 40.8164 -99.4128 269° West 441 507 38,000  Level Denver Center
08:05AM 40.8131 -99.5783 269° West 448 516 38,000  Level Denver Center
08:06AM 40.8097 -99.7439 269° West 451 519 38,000  Level Denver Center
08:07AM 40.8058 -99.8978 268° West 454 522 38,000  Level Denver Center
08:08AM 40.8014 -100.0828 268° West 453 521 38,000  Level Denver Center
08:09AM 40.7975 -100.2397 268° West 449 517 38,000  Level Denver Center
08:10AM 40.7753 -100.3939 259° West 447 514 38,000  Level Denver Center
08:11AM 40.7472 -100.5744 258° West 446 513 38,000  Level Denver Center
08:12AM 40.7219 -100.7344 258° West 454 522 38,000  Level Denver Center
08:13AM 40.6989 -100.8928 259° West 450 518 38,000  Level Denver Center
08:14AM 40.6747 -101.0472 258° West 446 513 38,000  Level Denver Center
08:15AM 40.6467 -101.2269 258° West 448 516 38,000  Level Denver Center
08:16AM 40.6219 -101.3825 258° West 453 521 38,000  Level Denver Center
08:17AM 40.5967 -101.5381 258° West 453 521 38,000 -240 Level Denver Center
08:18AM 40.5719 -101.6925 258° West 453 521 37,600 -1,860 Descending Denver Center
08:19AM 40.5422 -101.8725 258° West 450 518 34,300 -3,480 Descending Denver Center
08:20AM 40.5167 -102.0303 258° West 460 529 30,700 -2,160 Descending Denver Center
08:21AM 40.4892 -102.1939 258° West 478 550 30,000 -360 Descending Denver Center
08:22AM 40.4575 -102.3844 258° West 479 551 30,000  Level Denver Center
08:24AM 40.4289 -102.5469 257° West 478 550 30,000  Level Denver Center
08:25AM 40.4011 -102.7175 258° West 474 545 30,000  Level Denver Center
08:26AM 40.3717 -102.8842 257° West 472 543 30,000  Level Denver Center
08:27AM 40.3428 -103.0506 257° West 470 541 30,000 -120 Level Denver Center
08:28AM 40.3144 -103.2164 257° West 468 539 29,800 -1,380 Descending Denver Center
08:29AM 40.2850 -103.3783 257° West 459 528 27,300 -2,580 Descending Denver Center
08:30AM 40.2575 -103.5358 257° West 448 516 24,600 -2,460 Descending Denver Center
08:31AM 40.2297 -103.6831 256° West 418 481 22,300 -1,500 Descending Denver Center
08:32AM 40.2006 -103.8392 256° West 377 434 21,600 -1,140 Descending Denver Center
08:33AM 40.1564 -103.9458 242° Southwest 336 387 20,000 -1,620 Descending Denver Center
08:34AM 40.1092 -104.0492 239° Southwest 331 381 18,400 -1,440 Descending Denver Center
08:35AM 40.0644 -104.1461 239° Southwest 311 358 17,200 -1,380 Descending Denver Center
08:36AM 40.0172 -104.2483 239° Southwest 308 354 15,600 -1,500 Descending Denver Center
08:37AM 39.9744 -104.3397 239° Southwest 295 339 14,200 -1,380 Descending Denver Center
08:38AM 39.9319 -104.4317 239° Southwest 296 341 12,800 -1,380 Descending Denver Center
08:39AM 39.8742 -104.4983 222° Southwest 295 339 11,500 -900 Descending Denver Center
08:40AM 39.7947 -104.5017 182° South 282 325 11,000 -1,020 Descending Denver Center
08:41AM 39.7172 -104.5022 180° South 258 297 9,500 -1,500 Descending Denver Center
08:42AM 39.6619 -104.5408 208° Southwest 253 291 8,000 -900 Descending Denver Center
08:43AM 39.6794 -104.6150 287° West 229 264 7,700 -540 Descending Denver Center
08:44AM 39.7308 -104.6442 336° Northwest 206 237 7,000 -720 Descending Denver Center